sensor_id;sensor_type;location;lat;lon;timestamp;P1;durP1;ratioP1;P2;durP2;ratioP2
11123;SDS011;5616;42.692;23.312;2023-02-15T00:01:20;25.70;;;18.93;;
11123;SDS011;5616;42.692;23.312;2023-02-15T00:03:47;25.27;;;19.40;;
11123;SDS011;5616;42.692;23.312;2023-02-15T00:06:14;26.90;;;19.97;;
11123;SDS011;5616;42.692;23.312;2023-02-15T00:08:42;25.77;;;19.93;;
11123;SDS011;5616;42.692;23.312;2023-02-15T00:11:09;25.43;;;19.47;;
11123;SDS011;5616;42.692;23.312;2023-02-15T00:13:38;25.50;;;19.70;;
11123;SDS011;5616;42.692;23.312;2023-02-15T00:16:08;29.38;;;24.27;;
11123;SDS011;5616;42.692;23.312;2023-02-15T00:18:36;26.53;;;20.53;;
11123;SDS011;5616;42.692;23.312;2023-02-15T00:21:04;25.83;;;19.50;;
11123;SDS011;5616;42.692;23.312;2023-02-15T00:23:32;25.37;;;20.23;;
11123;SDS011;5616;42.692;23.312;2023-02-15T00:26:07;27.97;;;19.47;;
11123;SDS011;5616;42.692;23.312;2023-02-15T00:28:35;25.30;;;19.50;;
11123;SDS011;5616;42.692;23.312;2023-02-15T00:31:03;26.33;;;20.47;;
11123;SDS011;5616;42.692;23.312;2023-02-15T00:33:34;26.40;;;20.77;;
11123;SDS011;5616;42.692;23.312;2023-02-15T00:36:01;24.77;;;19.70;;
11123;SDS011;5616;42.692;23.312;2023-02-15T00:38:29;26.47;;;19.60;;
11123;SDS011;5616;42.692;23.312;2023-02-15T00:40:57;29.00;;;20.30;;
11123;SDS011;5616;42.692;23.312;2023-02-15T00:43:26;25.27;;;18.67;;
11123;SDS011;5616;42.692;23.312;2023-02-15T00:45:55;25.13;;;18.93;;
11123;SDS011;5616;42.692;23.312;2023-02-15T00:48:22;27.23;;;19.40;;
11123;SDS011;5616;42.692;23.312;2023-02-15T00:50:50;25.50;;;19.00;;
11123;SDS011;5616;42.692;23.312;2023-02-15T00:53:18;24.67;;;18.60;;
11123;SDS011;5616;42.692;23.312;2023-02-15T00:55:46;22.77;;;18.00;;
11123;SDS011;5616;42.692;23.312;2023-02-15T00:58:13;24.97;;;18.67;;
11123;SDS011;5616;42.692;23.312;2023-02-15T01:00:42;24.87;;;18.73;;
11123;SDS011;5616;42.692;23.312;2023-02-15T01:03:11;22.13;;;17.97;;
11123;SDS011;5616;42.692;23.312;2023-02-15T01:05:39;23.23;;;18.00;;
11123;SDS011;5616;42.692;23.312;2023-02-15T01:08:06;21.67;;;17.50;;
11123;SDS011;5616;42.692;23.312;2023-02-15T01:10:33;21.93;;;17.63;;
11123;SDS011;5616;42.692;23.312;2023-02-15T01:13:00;23.93;;;18.47;;
11123;SDS011;5616;42.692;23.312;2023-02-15T01:15:27;22.20;;;18.37;;
11123;SDS011;5616;42.692;23.312;2023-02-15T01:17:56;23.87;;;17.70;;
11123;SDS011;5616;42.692;23.312;2023-02-15T01:20:24;22.97;;;18.10;;
11123;SDS011;5616;42.692;23.312;2023-02-15T01:22:52;23.93;;;18.13;;
11123;SDS011;5616;42.692;23.312;2023-02-15T01:25:20;23.07;;;18.13;;
11123;SDS011;5616;42.692;23.312;2023-02-15T01:27:49;23.50;;;18.47;;
11123;SDS011;5616;42.692;23.312;2023-02-15T01:30:16;23.37;;;17.90;;
11123;SDS011;5616;42.692;23.312;2023-02-15T01:32:43;22.80;;;17.97;;
11123;SDS011;5616;42.692;23.312;2023-02-15T01:35:11;21.90;;;17.53;;
11123;SDS011;5616;42.692;23.312;2023-02-15T01:37:38;22.90;;;17.67;;
11123;SDS011;5616;42.692;23.312;2023-02-15T01:40:06;25.97;;;18.33;;
11123;SDS011;5616;42.692;23.312;2023-02-15T01:42:35;23.73;;;18.40;;
11123;SDS011;5616;42.692;23.312;2023-02-15T01:45:03;22.20;;;17.73;;
11123;SDS011;5616;42.692;23.312;2023-02-15T01:47:33;21.50;;;17.50;;
11123;SDS011;5616;42.692;23.312;2023-02-15T01:50:06;24.03;;;18.63;;
11123;SDS011;5616;42.692;23.312;2023-02-15T01:52:38;23.97;;;17.77;;
11123;SDS011;5616;42.692;23.312;2023-02-15T01:55:10;22.20;;;16.83;;
11123;SDS011;5616;42.692;23.312;2023-02-15T01:57:38;23.37;;;18.20;;
11123;SDS011;5616;42.692;23.312;2023-02-15T02:00:06;22.00;;;17.03;;
11123;SDS011;5616;42.692;23.312;2023-02-15T02:02:38;24.90;;;18.07;;
11123;SDS011;5616;42.692;23.312;2023-02-15T02:05:05;24.00;;;18.17;;
11123;SDS011;5616;42.692;23.312;2023-02-15T02:07:34;21.67;;;17.13;;
11123;SDS011;5616;42.692;23.312;2023-02-15T02:10:05;19.47;;;16.90;;
11123;SDS011;5616;42.692;23.312;2023-02-15T02:12:35;23.33;;;17.30;;
11123;SDS011;5616;42.692;23.312;2023-02-15T02:15:04;25.20;;;18.73;;
11123;SDS011;5616;42.692;23.312;2023-02-15T02:17:34;23.33;;;17.17;;
11123;SDS011;5616;42.692;23.312;2023-02-15T02:20:17;22.57;;;17.63;;
11123;SDS011;5616;42.692;23.312;2023-02-15T02:23:04;21.77;;;16.90;;
11123;SDS011;5616;42.692;23.312;2023-02-15T02:28:55;20.73;;;16.60;;
11123;SDS011;5616;42.692;23.312;2023-02-15T02:31:49;21.47;;;17.13;;
11123;SDS011;5616;42.692;23.312;2023-02-15T02:34:46;22.43;;;17.37;;
11123;SDS011;5616;42.692;23.312;2023-02-15T02:37:22;23.30;;;17.00;;
11123;SDS011;5616;42.692;23.312;2023-02-15T02:39:55;20.20;;;16.27;;
11123;SDS011;5616;42.692;23.312;2023-02-15T02:42:31;24.57;;;17.50;;
11123;SDS011;5616;42.692;23.312;2023-02-15T02:45:03;23.00;;;17.60;;
11123;SDS011;5616;42.692;23.312;2023-02-15T02:47:34;22.60;;;16.57;;
11123;SDS011;5616;42.692;23.312;2023-02-15T02:50:08;21.20;;;17.30;;
11123;SDS011;5616;42.692;23.312;2023-02-15T02:52:39;21.87;;;16.80;;
11123;SDS011;5616;42.692;23.312;2023-02-15T02:55:08;22.97;;;17.47;;
11123;SDS011;5616;42.692;23.312;2023-02-15T02:57:40;21.20;;;17.10;;
11123;SDS011;5616;42.692;23.312;2023-02-15T03:00:14;22.27;;;16.97;;
11123;SDS011;5616;42.692;23.312;2023-02-15T03:02:43;22.57;;;16.23;;
11123;SDS011;5616;42.692;23.312;2023-02-15T03:05:16;20.70;;;15.67;;
11123;SDS011;5616;42.692;23.312;2023-02-15T03:07:47;19.50;;;16.30;;
11123;SDS011;5616;42.692;23.312;2023-02-15T03:10:18;21.07;;;16.63;;
11123;SDS011;5616;42.692;23.312;2023-02-15T03:12:49;21.27;;;16.63;;
11123;SDS011;5616;42.692;23.312;2023-02-15T03:15:18;22.10;;;16.87;;
11123;SDS011;5616;42.692;23.312;2023-02-15T03:17:48;21.50;;;16.50;;
11123;SDS011;5616;42.692;23.312;2023-02-15T03:20:23;21.20;;;16.13;;
11123;SDS011;5616;42.692;23.312;2023-02-15T03:22:53;22.90;;;16.77;;
11123;SDS011;5616;42.692;23.312;2023-02-15T03:25:24;20.87;;;16.30;;
11123;SDS011;5616;42.692;23.312;2023-02-15T03:27:54;20.50;;;16.57;;
11123;SDS011;5616;42.692;23.312;2023-02-15T03:30:33;21.20;;;16.60;;
11123;SDS011;5616;42.692;23.312;2023-02-15T03:33:02;18.97;;;16.00;;
11123;SDS011;5616;42.692;23.312;2023-02-15T03:35:33;19.90;;;16.00;;
11123;SDS011;5616;42.692;23.312;2023-02-15T03:38:06;22.35;;;18.02;;
11123;SDS011;5616;42.692;23.312;2023-02-15T03:40:36;21.27;;;16.63;;
11123;SDS011;5616;42.692;23.312;2023-02-15T03:43:23;20.20;;;15.50;;
11123;SDS011;5616;42.692;23.312;2023-02-15T03:45:57;20.87;;;16.33;;
11123;SDS011;5616;42.692;23.312;2023-02-15T03:48:32;21.47;;;16.27;;
11123;SDS011;5616;42.692;23.312;2023-02-15T03:51:05;19.57;;;15.63;;
11123;SDS011;5616;42.692;23.312;2023-02-15T03:53:52;22.63;;;16.00;;
11123;SDS011;5616;42.692;23.312;2023-02-15T03:56:21;20.93;;;16.70;;
11123;SDS011;5616;42.692;23.312;2023-02-15T03:58:47;20.27;;;16.13;;
11123;SDS011;5616;42.692;23.312;2023-02-15T04:01:33;21.83;;;16.37;;
11123;SDS011;5616;42.692;23.312;2023-02-15T04:04:38;19.80;;;15.80;;
11123;SDS011;5616;42.692;23.312;2023-02-15T04:07:08;19.30;;;15.50;;
11123;SDS011;5616;42.692;23.312;2023-02-15T04:09:35;19.70;;;15.43;;
11123;SDS011;5616;42.692;23.312;2023-02-15T04:12:19;19.90;;;16.07;;
11123;SDS011;5616;42.692;23.312;2023-02-15T04:14:47;21.03;;;16.20;;
11123;SDS011;5616;42.692;23.312;2023-02-15T04:17:31;21.63;;;16.60;;
11123;SDS011;5616;42.692;23.312;2023-02-15T04:19:59;19.13;;;16.37;;
11123;SDS011;5616;42.692;23.312;2023-02-15T04:22:43;20.73;;;16.53;;
11123;SDS011;5616;42.692;23.312;2023-02-15T04:25:27;19.93;;;15.40;;
11123;SDS011;5616;42.692;23.312;2023-02-15T04:27:54;18.47;;;15.20;;
11123;SDS011;5616;42.692;23.312;2023-02-15T04:30:22;21.17;;;16.43;;
11123;SDS011;5616;42.692;23.312;2023-02-15T04:32:50;21.47;;;16.23;;
11123;SDS011;5616;42.692;23.312;2023-02-15T04:35:19;19.80;;;15.60;;
11123;SDS011;5616;42.692;23.312;2023-02-15T04:37:45;18.93;;;15.93;;
11123;SDS011;5616;42.692;23.312;2023-02-15T04:40:13;18.57;;;16.00;;
11123;SDS011;5616;42.692;23.312;2023-02-15T04:42:40;20.27;;;15.90;;
11123;SDS011;5616;42.692;23.312;2023-02-15T04:45:07;19.47;;;16.07;;
11123;SDS011;5616;42.692;23.312;2023-02-15T04:47:34;21.43;;;16.20;;
11123;SDS011;5616;42.692;23.312;2023-02-15T04:50:01;20.40;;;15.87;;
11123;SDS011;5616;42.692;23.312;2023-02-15T04:52:29;21.30;;;16.23;;
11123;SDS011;5616;42.692;23.312;2023-02-15T04:54:56;20.80;;;16.53;;
11123;SDS011;5616;42.692;23.312;2023-02-15T04:57:23;20.10;;;15.67;;
11123;SDS011;5616;42.692;23.312;2023-02-15T04:59:50;21.63;;;16.43;;
11123;SDS011;5616;42.692;23.312;2023-02-15T05:02:16;22.17;;;16.00;;
11123;SDS011;5616;42.692;23.312;2023-02-15T05:04:43;19.00;;;15.70;;
11123;SDS011;5616;42.692;23.312;2023-02-15T05:07:10;22.23;;;16.50;;
11123;SDS011;5616;42.692;23.312;2023-02-15T05:09:38;21.73;;;16.73;;
11123;SDS011;5616;42.692;23.312;2023-02-15T05:12:05;20.03;;;16.07;;
11123;SDS011;5616;42.692;23.312;2023-02-15T05:14:32;21.33;;;16.40;;
11123;SDS011;5616;42.692;23.312;2023-02-15T05:16:59;20.10;;;15.97;;
11123;SDS011;5616;42.692;23.312;2023-02-15T05:19:26;20.07;;;16.37;;
11123;SDS011;5616;42.692;23.312;2023-02-15T05:21:53;20.47;;;15.47;;
11123;SDS011;5616;42.692;23.312;2023-02-15T05:24:20;21.47;;;16.00;;
11123;SDS011;5616;42.692;23.312;2023-02-15T05:27:06;22.97;;;15.87;;
11123;SDS011;5616;42.692;23.312;2023-02-15T05:29:50;22.63;;;16.17;;
11123;SDS011;5616;42.692;23.312;2023-02-15T05:32:17;21.40;;;16.13;;
11123;SDS011;5616;42.692;23.312;2023-02-15T05:34:43;19.87;;;15.73;;
11123;SDS011;5616;42.692;23.312;2023-02-15T05:37:10;23.50;;;16.80;;
11123;SDS011;5616;42.692;23.312;2023-02-15T05:39:37;21.60;;;16.37;;
11123;SDS011;5616;42.692;23.312;2023-02-15T05:42:05;21.10;;;16.50;;
11123;SDS011;5616;42.692;23.312;2023-02-15T05:44:32;24.23;;;17.17;;
11123;SDS011;5616;42.692;23.312;2023-02-15T05:46:59;19.20;;;15.50;;
11123;SDS011;5616;42.692;23.312;2023-02-15T05:49:28;23.10;;;16.67;;
11123;SDS011;5616;42.692;23.312;2023-02-15T05:51:55;22.50;;;17.13;;
11123;SDS011;5616;42.692;23.312;2023-02-15T05:54:22;20.50;;;16.17;;
11123;SDS011;5616;42.692;23.312;2023-02-15T05:56:49;23.45;;;18.98;;
11123;SDS011;5616;42.692;23.312;2023-02-15T05:59:17;20.97;;;16.57;;
11123;SDS011;5616;42.692;23.312;2023-02-15T06:01:44;21.23;;;16.63;;
11123;SDS011;5616;42.692;23.312;2023-02-15T06:04:10;20.67;;;16.43;;
11123;SDS011;5616;42.692;23.312;2023-02-15T06:06:38;20.43;;;16.43;;
11123;SDS011;5616;42.692;23.312;2023-02-15T06:09:05;21.47;;;16.93;;
11123;SDS011;5616;42.692;23.312;2023-02-15T06:11:32;22.07;;;16.50;;
11123;SDS011;5616;42.692;23.312;2023-02-15T06:13:58;21.13;;;15.93;;
11123;SDS011;5616;42.692;23.312;2023-02-15T06:16:27;21.67;;;16.07;;
11123;SDS011;5616;42.692;23.312;2023-02-15T06:18:53;19.67;;;14.97;;
11123;SDS011;5616;42.692;23.312;2023-02-15T06:21:20;22.53;;;15.83;;
11123;SDS011;5616;42.692;23.312;2023-02-15T06:23:47;20.30;;;15.13;;
11123;SDS011;5616;42.692;23.312;2023-02-15T06:26:14;18.80;;;14.97;;
11123;SDS011;5616;42.692;23.312;2023-02-15T06:28:40;19.43;;;15.30;;
11123;SDS011;5616;42.692;23.312;2023-02-15T06:31:07;21.50;;;15.90;;
11123;SDS011;5616;42.692;23.312;2023-02-15T06:33:35;22.50;;;15.40;;
11123;SDS011;5616;42.692;23.312;2023-02-15T06:36:03;21.63;;;15.93;;
11123;SDS011;5616;42.692;23.312;2023-02-15T06:38:30;21.03;;;15.70;;
11123;SDS011;5616;42.692;23.312;2023-02-15T06:40:57;38.37;;;22.93;;
11123;SDS011;5616;42.692;23.312;2023-02-15T06:43:24;25.63;;;17.73;;
11123;SDS011;5616;42.692;23.312;2023-02-15T06:45:51;28.80;;;18.30;;
11123;SDS011;5616;42.692;23.312;2023-02-15T06:48:17;23.80;;;17.87;;
11123;SDS011;5616;42.692;23.312;2023-02-15T06:50:45;24.53;;;18.07;;
11123;SDS011;5616;42.692;23.312;2023-02-15T06:53:12;22.37;;;17.07;;
11123;SDS011;5616;42.692;23.312;2023-02-15T06:55:39;21.67;;;16.87;;
11123;SDS011;5616;42.692;23.312;2023-02-15T06:58:06;20.43;;;16.23;;
11123;SDS011;5616;42.692;23.312;2023-02-15T07:00:33;20.33;;;16.23;;
11123;SDS011;5616;42.692;23.312;2023-02-15T07:02:59;19.03;;;15.20;;
11123;SDS011;5616;42.692;23.312;2023-02-15T07:05:27;19.50;;;15.37;;
11123;SDS011;5616;42.692;23.312;2023-02-15T07:07:57;18.27;;;14.47;;
11123;SDS011;5616;42.692;23.312;2023-02-15T07:10:24;18.47;;;14.77;;
11123;SDS011;5616;42.692;23.312;2023-02-15T07:12:51;18.53;;;13.80;;
11123;SDS011;5616;42.692;23.312;2023-02-15T07:15:17;18.07;;;14.00;;
11123;SDS011;5616;42.692;23.312;2023-02-15T07:17:46;20.43;;;14.40;;
11123;SDS011;5616;42.692;23.312;2023-02-15T07:20:14;17.83;;;12.67;;
11123;SDS011;5616;42.692;23.312;2023-02-15T07:22:43;16.47;;;13.40;;
11123;SDS011;5616;42.692;23.312;2023-02-15T07:25:11;15.60;;;13.07;;
11123;SDS011;5616;42.692;23.312;2023-02-15T07:27:38;17.27;;;13.00;;
11123;SDS011;5616;42.692;23.312;2023-02-15T07:30:06;16.30;;;12.47;;
11123;SDS011;5616;42.692;23.312;2023-02-15T07:32:35;16.23;;;12.77;;
11123;SDS011;5616;42.692;23.312;2023-02-15T07:35:02;16.60;;;12.87;;
11123;SDS011;5616;42.692;23.312;2023-02-15T07:37:29;15.57;;;13.17;;
11123;SDS011;5616;42.692;23.312;2023-02-15T07:39:55;17.67;;;13.47;;
11123;SDS011;5616;42.692;23.312;2023-02-15T07:42:23;15.93;;;12.73;;
11123;SDS011;5616;42.692;23.312;2023-02-15T07:44:50;15.03;;;12.17;;
11123;SDS011;5616;42.692;23.312;2023-02-15T07:47:17;16.57;;;12.63;;
11123;SDS011;5616;42.692;23.312;2023-02-15T07:49:44;16.30;;;12.30;;
11123;SDS011;5616;42.692;23.312;2023-02-15T07:52:11;15.53;;;12.40;;
11123;SDS011;5616;42.692;23.312;2023-02-15T07:54:38;16.43;;;13.00;;
11123;SDS011;5616;42.692;23.312;2023-02-15T07:57:05;16.93;;;12.83;;
11123;SDS011;5616;42.692;23.312;2023-02-15T07:59:33;15.87;;;12.80;;
11123;SDS011;5616;42.692;23.312;2023-02-15T08:02:00;19.27;;;12.97;;
11123;SDS011;5616;42.692;23.312;2023-02-15T08:04:27;16.97;;;12.97;;
11123;SDS011;5616;42.692;23.312;2023-02-15T08:06:53;16.63;;;13.07;;
11123;SDS011;5616;42.692;23.312;2023-02-15T08:09:20;18.03;;;13.20;;
11123;SDS011;5616;42.692;23.312;2023-02-15T08:11:48;16.40;;;12.77;;
11123;SDS011;5616;42.692;23.312;2023-02-15T08:14:15;18.60;;;13.80;;
11123;SDS011;5616;42.692;23.312;2023-02-15T08:16:45;15.20;;;11.77;;
11123;SDS011;5616;42.692;23.312;2023-02-15T08:19:14;16.27;;;12.57;;
11123;SDS011;5616;42.692;23.312;2023-02-15T08:21:43;16.13;;;12.67;;
11123;SDS011;5616;42.692;23.312;2023-02-15T08:24:12;16.27;;;12.50;;
11123;SDS011;5616;42.692;23.312;2023-02-15T08:26:40;18.17;;;11.73;;
11123;SDS011;5616;42.692;23.312;2023-02-15T08:29:08;14.50;;;12.27;;
11123;SDS011;5616;42.692;23.312;2023-02-15T08:31:35;18.50;;;11.73;;
11123;SDS011;5616;42.692;23.312;2023-02-15T08:34:04;16.47;;;12.43;;
11123;SDS011;5616;42.692;23.312;2023-02-15T08:36:31;13.33;;;11.90;;
11123;SDS011;5616;42.692;23.312;2023-02-15T08:38:58;15.73;;;12.37;;
11123;SDS011;5616;42.692;23.312;2023-02-15T08:41:26;14.83;;;11.80;;
11123;SDS011;5616;42.692;23.312;2023-02-15T08:43:56;15.57;;;11.77;;
11123;SDS011;5616;42.692;23.312;2023-02-15T08:46:25;13.80;;;11.83;;
11123;SDS011;5616;42.692;23.312;2023-02-15T08:48:53;22.60;;;13.60;;
11123;SDS011;5616;42.692;23.312;2023-02-15T08:51:22;16.47;;;12.70;;
11123;SDS011;5616;42.692;23.312;2023-02-15T08:53:51;15.83;;;11.60;;
11123;SDS011;5616;42.692;23.312;2023-02-15T08:56:22;16.23;;;12.47;;
11123;SDS011;5616;42.692;23.312;2023-02-15T08:58:51;15.70;;;11.20;;
11123;SDS011;5616;42.692;23.312;2023-02-15T09:01:18;14.43;;;11.00;;
11123;SDS011;5616;42.692;23.312;2023-02-15T09:03:47;15.47;;;10.27;;
11123;SDS011;5616;42.692;23.312;2023-02-15T09:06:15;14.93;;;12.00;;
11123;SDS011;5616;42.692;23.312;2023-02-15T09:08:44;14.17;;;11.53;;
11123;SDS011;5616;42.692;23.312;2023-02-15T09:11:12;16.03;;;11.87;;
11123;SDS011;5616;42.692;23.312;2023-02-15T09:13:42;16.73;;;12.30;;
11123;SDS011;5616;42.692;23.312;2023-02-15T09:16:09;14.93;;;12.00;;
11123;SDS011;5616;42.692;23.312;2023-02-15T09:18:37;18.97;;;12.73;;
11123;SDS011;5616;42.692;23.312;2023-02-15T09:21:05;16.60;;;11.00;;
11123;SDS011;5616;42.692;23.312;2023-02-15T09:23:34;16.23;;;10.73;;
11123;SDS011;5616;42.692;23.312;2023-02-15T09:26:03;16.47;;;11.83;;
11123;SDS011;5616;42.692;23.312;2023-02-15T09:28:31;16.23;;;11.80;;
11123;SDS011;5616;42.692;23.312;2023-02-15T09:31:04;14.57;;;11.23;;
11123;SDS011;5616;42.692;23.312;2023-02-15T09:33:32;16.30;;;12.13;;
11123;SDS011;5616;42.692;23.312;2023-02-15T09:36:01;18.93;;;11.87;;
11123;SDS011;5616;42.692;23.312;2023-02-15T09:38:28;16.47;;;12.00;;
11123;SDS011;5616;42.692;23.312;2023-02-15T09:40:57;14.37;;;12.03;;
11123;SDS011;5616;42.692;23.312;2023-02-15T09:43:35;14.33;;;11.70;;
11123;SDS011;5616;42.692;23.312;2023-02-15T09:46:21;19.20;;;12.67;;
11123;SDS011;5616;42.692;23.312;2023-02-15T09:49:00;17.50;;;13.00;;
11123;SDS011;5616;42.692;23.312;2023-02-15T09:51:48;18.10;;;12.70;;
11123;SDS011;5616;42.692;23.312;2023-02-15T09:54:34;15.43;;;12.33;;
11123;SDS011;5616;42.692;23.312;2023-02-15T09:57:16;15.63;;;12.43;;
11123;SDS011;5616;42.692;23.312;2023-02-15T09:59:54;17.17;;;12.47;;
11123;SDS011;5616;42.692;23.312;2023-02-15T10:02:42;15.63;;;11.93;;
11123;SDS011;5616;42.692;23.312;2023-02-15T10:05:25;16.70;;;12.90;;
11123;SDS011;5616;42.692;23.312;2023-02-15T10:11:02;16.53;;;12.07;;
11123;SDS011;5616;42.692;23.312;2023-02-15T10:13:52;16.60;;;12.00;;
11123;SDS011;5616;42.692;23.312;2023-02-15T10:16:25;17.03;;;11.97;;
11123;SDS011;5616;42.692;23.312;2023-02-15T10:19:02;14.40;;;11.80;;
11123;SDS011;5616;42.692;23.312;2023-02-15T10:21:39;15.43;;;12.17;;
11123;SDS011;5616;42.692;23.312;2023-02-15T10:24:20;18.53;;;13.00;;
11123;SDS011;5616;42.692;23.312;2023-02-15T10:26:58;15.50;;;12.47;;
11123;SDS011;5616;42.692;23.312;2023-02-15T10:29:36;14.67;;;11.67;;
11123;SDS011;5616;42.692;23.312;2023-02-15T10:32:05;17.43;;;12.43;;
11123;SDS011;5616;42.692;23.312;2023-02-15T10:34:45;15.13;;;12.40;;
11123;SDS011;5616;42.692;23.312;2023-02-15T10:37:27;15.53;;;12.27;;
11123;SDS011;5616;42.692;23.312;2023-02-15T10:40:13;16.33;;;13.53;;
11123;SDS011;5616;42.692;23.312;2023-02-15T10:45:43;18.27;;;14.37;;
11123;SDS011;5616;42.692;23.312;2023-02-15T10:48:23;17.10;;;13.30;;
11123;SDS011;5616;42.692;23.312;2023-02-15T10:51:02;16.17;;;13.63;;
11123;SDS011;5616;42.692;23.312;2023-02-15T10:53:35;15.23;;;12.87;;
11123;SDS011;5616;42.692;23.312;2023-02-15T10:56:12;15.20;;;13.10;;
11123;SDS011;5616;42.692;23.312;2023-02-15T10:59:00;17.30;;;14.17;;
11123;SDS011;5616;42.692;23.312;2023-02-15T11:01:43;17.70;;;14.20;;
11123;SDS011;5616;42.692;23.312;2023-02-15T11:07:13;17.57;;;14.17;;
11123;SDS011;5616;42.692;23.312;2023-02-15T11:09:46;16.13;;;13.80;;
11123;SDS011;5616;42.692;23.312;2023-02-15T11:12:16;16.40;;;13.40;;
11123;SDS011;5616;42.692;23.312;2023-02-15T11:14:49;14.67;;;12.77;;
11123;SDS011;5616;42.692;23.312;2023-02-15T11:17:24;15.83;;;12.77;;
11123;SDS011;5616;42.692;23.312;2023-02-15T11:19:56;20.40;;;13.90;;
11123;SDS011;5616;42.692;23.312;2023-02-15T11:22:28;19.17;;;14.03;;
11123;SDS011;5616;42.692;23.312;2023-02-15T11:24:57;16.07;;;13.60;;
11123;SDS011;5616;42.692;23.312;2023-02-15T11:27:27;17.33;;;14.00;;
11123;SDS011;5616;42.692;23.312;2023-02-15T11:29:58;18.03;;;13.20;;
11123;SDS011;5616;42.692;23.312;2023-02-15T11:32:30;16.33;;;13.07;;
11123;SDS011;5616;42.692;23.312;2023-02-15T11:35:00;16.43;;;13.77;;
11123;SDS011;5616;42.692;23.312;2023-02-15T11:37:33;17.70;;;13.80;;
11123;SDS011;5616;42.692;23.312;2023-02-15T11:40:12;20.07;;;14.63;;
11123;SDS011;5616;42.692;23.312;2023-02-15T11:42:46;19.80;;;14.47;;
11123;SDS011;5616;42.692;23.312;2023-02-15T11:45:18;17.67;;;14.30;;
11123;SDS011;5616;42.692;23.312;2023-02-15T11:47:50;19.97;;;13.73;;
11123;SDS011;5616;42.692;23.312;2023-02-15T11:50:19;19.20;;;14.00;;
11123;SDS011;5616;42.692;23.312;2023-02-15T11:52:48;17.57;;;14.20;;
11123;SDS011;5616;42.692;23.312;2023-02-15T11:55:18;17.10;;;13.80;;
11123;SDS011;5616;42.692;23.312;2023-02-15T11:57:48;17.80;;;14.43;;
11123;SDS011;5616;42.692;23.312;2023-02-15T12:00:20;18.93;;;14.33;;
11123;SDS011;5616;42.692;23.312;2023-02-15T12:03:02;19.60;;;13.53;;
11123;SDS011;5616;42.692;23.312;2023-02-15T12:05:35;17.23;;;12.93;;
11123;SDS011;5616;42.692;23.312;2023-02-15T12:08:09;15.37;;;13.10;;
11123;SDS011;5616;42.692;23.312;2023-02-15T12:10:42;17.90;;;13.83;;
11123;SDS011;5616;42.692;23.312;2023-02-15T12:13:19;18.67;;;13.90;;
11123;SDS011;5616;42.692;23.312;2023-02-15T12:15:47;19.07;;;13.70;;
11123;SDS011;5616;42.692;23.312;2023-02-15T12:18:32;18.27;;;14.70;;
11123;SDS011;5616;42.692;23.312;2023-02-15T12:21:03;16.23;;;13.63;;
11123;SDS011;5616;42.692;23.312;2023-02-15T12:23:33;16.93;;;13.70;;
11123;SDS011;5616;42.692;23.312;2023-02-15T12:26:06;19.90;;;14.60;;
11123;SDS011;5616;42.692;23.312;2023-02-15T12:28:33;17.77;;;13.70;;
11123;SDS011;5616;42.692;23.312;2023-02-15T12:31:03;16.47;;;13.10;;
11123;SDS011;5616;42.692;23.312;2023-02-15T12:33:36;15.30;;;12.93;;
11123;SDS011;5616;42.692;23.312;2023-02-15T12:36:12;16.93;;;13.90;;
11123;SDS011;5616;42.692;23.312;2023-02-15T12:38:43;15.97;;;13.27;;
11123;SDS011;5616;42.692;23.312;2023-02-15T12:41:29;18.50;;;14.13;;
11123;SDS011;5616;42.692;23.312;2023-02-15T12:44:03;15.70;;;13.43;;
11123;SDS011;5616;42.692;23.312;2023-02-15T12:46:31;17.63;;;14.10;;
11123;SDS011;5616;42.692;23.312;2023-02-15T12:49:07;17.50;;;14.00;;
11123;SDS011;5616;42.692;23.312;2023-02-15T12:51:45;17.93;;;13.87;;
11123;SDS011;5616;42.692;23.312;2023-02-15T12:54:17;16.87;;;12.73;;
11123;SDS011;5616;42.692;23.312;2023-02-15T12:56:50;16.53;;;13.70;;
11123;SDS011;5616;42.692;23.312;2023-02-15T12:59:16;17.13;;;14.40;;
11123;SDS011;5616;42.692;23.312;2023-02-15T13:01:45;17.93;;;14.40;;
11123;SDS011;5616;42.692;23.312;2023-02-15T13:04:18;15.47;;;13.20;;
11123;SDS011;5616;42.692;23.312;2023-02-15T13:06:50;17.77;;;14.27;;
11123;SDS011;5616;42.692;23.312;2023-02-15T13:09:19;16.47;;;13.27;;
11123;SDS011;5616;42.692;23.312;2023-02-15T13:11:53;16.03;;;12.97;;
11123;SDS011;5616;42.692;23.312;2023-02-15T13:14:20;18.30;;;14.20;;
11123;SDS011;5616;42.692;23.312;2023-02-15T13:16:52;17.77;;;14.40;;
11123;SDS011;5616;42.692;23.312;2023-02-15T13:19:26;19.70;;;14.17;;
11123;SDS011;5616;42.692;23.312;2023-02-15T13:21:59;18.10;;;13.33;;
11123;SDS011;5616;42.692;23.312;2023-02-15T13:24:32;15.33;;;13.40;;
11123;SDS011;5616;42.692;23.312;2023-02-15T13:27:03;15.80;;;13.17;;
11123;SDS011;5616;42.692;23.312;2023-02-15T13:29:31;17.60;;;14.20;;
11123;SDS011;5616;42.692;23.312;2023-02-15T13:32:06;15.67;;;13.47;;
11123;SDS011;5616;42.692;23.312;2023-02-15T13:34:40;15.83;;;13.63;;
11123;SDS011;5616;42.692;23.312;2023-02-15T13:37:08;16.00;;;12.40;;
11123;SDS011;5616;42.692;23.312;2023-02-15T13:39:45;16.80;;;13.30;;
11123;SDS011;5616;42.692;23.312;2023-02-15T13:42:18;17.03;;;13.33;;
11123;SDS011;5616;42.692;23.312;2023-02-15T13:47:49;19.23;;;13.20;;
11123;SDS011;5616;42.692;23.312;2023-02-15T13:53:30;16.57;;;12.90;;
11123;SDS011;5616;42.692;23.312;2023-02-15T13:56:08;17.37;;;14.37;;
11123;SDS011;5616;42.692;23.312;2023-02-15T13:58:54;16.17;;;13.97;;
11123;SDS011;5616;42.692;23.312;2023-02-15T14:01:40;20.27;;;13.60;;
11123;SDS011;5616;42.692;23.312;2023-02-15T14:04:22;17.13;;;14.07;;
11123;SDS011;5616;42.692;23.312;2023-02-15T14:07:18;18.87;;;14.53;;
11123;SDS011;5616;42.692;23.312;2023-02-15T14:10:00;18.53;;;15.07;;
11123;SDS011;5616;42.692;23.312;2023-02-15T14:12:41;19.63;;;15.00;;
11123;SDS011;5616;42.692;23.312;2023-02-15T14:15:25;18.87;;;14.43;;
11123;SDS011;5616;42.692;23.312;2023-02-15T14:18:01;16.80;;;14.13;;
11123;SDS011;5616;42.692;23.312;2023-02-15T14:20:45;17.33;;;14.37;;
11123;SDS011;5616;42.692;23.312;2023-02-15T14:23:22;17.50;;;14.60;;
11123;SDS011;5616;42.692;23.312;2023-02-15T14:26:04;17.43;;;13.90;;
11123;SDS011;5616;42.692;23.312;2023-02-15T14:28:40;18.30;;;14.57;;
11123;SDS011;5616;42.692;23.312;2023-02-15T14:31:12;17.50;;;13.70;;
11123;SDS011;5616;42.692;23.312;2023-02-15T14:33:41;17.13;;;14.43;;
11123;SDS011;5616;42.692;23.312;2023-02-15T14:36:15;17.70;;;14.33;;
11123;SDS011;5616;42.692;23.312;2023-02-15T14:38:50;19.60;;;14.87;;
11123;SDS011;5616;42.692;23.312;2023-02-15T14:41:24;18.00;;;14.83;;
11123;SDS011;5616;42.692;23.312;2023-02-15T14:43:56;18.53;;;14.83;;
11123;SDS011;5616;42.692;23.312;2023-02-15T14:46:34;17.17;;;14.33;;
11123;SDS011;5616;42.692;23.312;2023-02-15T14:49:10;17.53;;;14.37;;
11123;SDS011;5616;42.692;23.312;2023-02-15T14:57:23;21.73;;;15.20;;
11123;SDS011;5616;42.692;23.312;2023-02-15T14:59:56;18.53;;;15.10;;
11123;SDS011;5616;42.692;23.312;2023-02-15T15:02:25;17.80;;;14.47;;
11123;SDS011;5616;42.692;23.312;2023-02-15T15:05:05;17.67;;;15.03;;
11123;SDS011;5616;42.692;23.312;2023-02-15T15:07:41;19.93;;;14.90;;
11123;SDS011;5616;42.692;23.312;2023-02-15T15:22:33;19.07;;;14.43;;